createdAt,value
2022-11-16T00:01:57.056Z,97485.09
2022-11-16T00:04:24.957Z,97474.41
2022-11-16T00:06:52.868Z,97477.94
2022-11-16T00:09:23.361Z,97466.84
2022-11-16T00:11:52.654Z,97479.06
2022-11-16T00:14:21.067Z,97474.38
2022-11-16T00:16:49.223Z,97470.84
2022-11-16T00:19:19.027Z,97481.34
2022-11-16T00:21:47.122Z,97479.56
2022-11-16T00:24:16.693Z,97472.63
2022-11-16T00:26:44.780Z,97474.91
2022-11-16T00:29:16.279Z,97480.41
2022-11-16T00:31:45.072Z,97480.41
2022-11-16T00:34:13.453Z,97486.03
2022-11-16T00:36:42.608Z,97480.50
2022-11-16T00:39:12.213Z,97470.63
2022-11-16T00:41:39.956Z,97465.09
2022-11-16T00:44:08.276Z,97459.00
2022-11-16T00:46:35.999Z,97463.19
2022-11-16T00:49:05.368Z,97456.09
2022-11-16T00:51:33.553Z,97469.94
2022-11-16T00:54:04.149Z,97473.31
2022-11-16T00:56:34.226Z,97464.69
2022-11-16T00:59:02.498Z,97466.28
2022-11-16T01:01:30.375Z,97452.88
2022-11-16T01:03:58.311Z,97438.75
2022-11-16T01:06:26.135Z,97437.59
2022-11-16T01:08:53.937Z,97443.56
2022-11-16T01:11:43.308Z,97441.56
2022-11-16T01:14:11.774Z,97443.56
2022-11-16T01:16:39.457Z,97442.00
2022-11-16T01:19:07.374Z,97434.91
2022-11-16T01:21:35.181Z,97440.41
2022-11-16T01:24:03.100Z,97449.88
2022-11-16T01:26:32.167Z,97457.31
2022-11-16T01:29:00.308Z,97449.84
2022-11-16T01:31:31.915Z,97449.84
2022-11-16T01:34:02.134Z,97445.91
2022-11-16T01:36:30.935Z,97436.50
2022-11-16T01:39:00.869Z,97437.25
2022-11-16T01:41:34.478Z,97443.16
2022-11-16T01:44:07.728Z,97437.66
2022-11-16T01:46:44.629Z,97431.34
2022-11-16T01:49:18.816Z,97425.06
2022-11-16T01:51:50.795Z,97425.84
2022-11-16T01:54:19.891Z,97410.84
2022-11-16T01:57:01.618Z,97417.97
2022-11-16T01:59:37.466Z,97420.34
2022-11-16T02:02:07.049Z,97412.84
2022-11-16T02:04:37.681Z,97413.63
2022-11-16T02:07:13.913Z,97415.22
2022-11-16T02:09:58.819Z,97414.06
2022-11-16T02:13:11.363Z,97411.66
2022-11-16T02:15:48.962Z,97417.13
2022-11-16T02:18:34.241Z,97409.56
2022-11-16T02:21:10.413Z,97411.25
2022-11-16T02:24:34.499Z,97412.84
2022-11-16T02:27:49.772Z,97407.72
2022-11-16T02:30:19.913Z,97429.66
2022-11-16T02:32:53.647Z,97430.16
2022-11-16T02:35:27.063Z,97421.13
2022-11-16T02:38:01.212Z,97428.13
2022-11-16T02:40:32.745Z,97433.25
2022-11-16T02:43:05.965Z,97419.16
2022-11-16T02:45:38.180Z,97418.31
2022-11-16T02:48:10.729Z,97411.59
2022-11-16T02:50:40.103Z,97417.78
2022-11-16T02:53:07.878Z,97414.53
2022-11-16T02:55:37.349Z,97401.09
2022-11-16T02:58:07.319Z,97404.97
2022-11-16T03:00:44.850Z,97395.72
2022-11-16T03:03:25.006Z,97398.06
2022-11-16T03:05:57.114Z,97395.38
2022-11-16T03:08:30.498Z,97398.69
2022-11-16T03:11:22.767Z,97404.34
2022-11-16T03:13:52.883Z,97396.50
2022-11-16T03:16:25.980Z,97394.56
2022-11-16T03:18:56.632Z,97388.94
2022-11-16T03:21:31.460Z,97395.63
2022-11-16T03:23:58.990Z,97397.75
2022-11-16T03:26:34.385Z,97387.94
2022-11-16T03:29:06.780Z,97400.63
2022-11-16T03:31:42.709Z,97398.59
2022-11-16T03:34:20.186Z,97403.75
2022-11-16T03:36:51.436Z,97397.38
2022-11-16T03:39:24.510Z,97402.63
2022-11-16T03:41:52.325Z,97401.41
2022-11-16T03:44:21.514Z,97413.25
2022-11-16T03:46:50.677Z,97404.19
2022-11-16T03:49:21.856Z,97401.06
2022-11-16T03:51:50.481Z,97412.06
2022-11-16T03:54:18.338Z,97399.88
2022-11-16T03:56:45.995Z,97396.31
2022-11-16T03:59:13.707Z,97423.72
2022-11-16T04:01:44.755Z,97438.25
2022-11-16T04:04:29.230Z,97449.00
2022-11-16T04:07:15.765Z,97454.84
2022-11-16T04:10:01.119Z,97455.09
2022-11-16T04:12:49.409Z,97453.56
2022-11-16T04:15:36.856Z,97454.88
2022-11-16T04:18:22.600Z,97446.66
2022-11-16T04:21:09.021Z,97441.16
2022-11-16T04:23:55.226Z,97430.16
2022-11-16T04:26:44.030Z,97444.69
2022-11-16T04:29:12.108Z,97448.59
2022-11-16T04:32:03.222Z,97442.75
2022-11-16T04:34:48.638Z,97437.25
2022-11-16T04:37:36.702Z,97430.91
2022-11-16T04:40:06.207Z,97434.75
2022-11-16T04:42:32.992Z,97443.53
2022-11-16T04:45:18.367Z,97439.22
2022-11-16T04:47:52.606Z,97439.63
2022-11-16T04:50:22.558Z,97435.66
2022-11-16T04:52:52.652Z,97435.69
2022-11-16T04:55:21.145Z,97438.84
2022-11-16T04:57:50.363Z,97449.81
2022-11-16T05:00:18.751Z,97446.72
2022-11-16T05:02:46.742Z,97440.63
2022-11-16T05:05:15.196Z,97420.03
2022-11-16T05:07:45.011Z,97418.59
2022-11-16T05:10:20.837Z,97424.44
2022-11-16T05:12:50.200Z,97435.25
2022-11-16T05:15:19.676Z,97433.50
2022-11-16T05:17:48.482Z,97437.09
2022-11-16T05:20:37.613Z,97431.09
2022-11-16T05:23:26.256Z,97432.22
2022-11-16T05:25:56.287Z,97428.28
2022-11-16T05:28:24.097Z,97426.63
2022-11-16T05:30:52.195Z,97431.69
2022-11-16T05:33:23.415Z,97431.22
2022-11-16T05:35:51.804Z,97439.31
2022-11-16T05:38:21.067Z,97428.97
2022-11-16T05:40:52.759Z,97442.66
2022-11-16T05:43:22.794Z,97443.44
2022-11-16T05:46:01.369Z,97445.91
2022-11-16T05:48:29.054Z,97458.50
2022-11-16T05:50:59.425Z,97443.91
2022-11-16T05:53:28.426Z,97450.66
2022-11-16T05:55:56.411Z,97450.22
2022-11-16T05:58:26.652Z,97451.44
2022-11-16T06:00:54.707Z,97454.59
2022-11-16T06:03:23.200Z,97446.22
2022-11-16T06:05:53.183Z,97449.81
2022-11-16T06:08:21.203Z,97451.44
2022-11-16T06:10:52.114Z,97449.06
2022-11-16T06:13:19.863Z,97457.34
2022-11-16T06:15:54.846Z,97446.28
2022-11-16T06:18:23.429Z,97446.16
2022-11-16T06:20:51.613Z,97447.41
2022-11-16T06:23:22.070Z,97445.84
2022-11-16T06:25:54.650Z,97447.06
2022-11-16T06:28:24.972Z,97468.72
2022-11-16T06:30:54.337Z,97469.13
2022-11-16T06:33:25.673Z,97492.66
2022-11-16T06:35:58.316Z,97498.41
2022-11-16T06:38:26.308Z,97506.34
2022-11-16T06:40:57.640Z,97497.44
2022-11-16T06:43:28.091Z,97505.19
2022-11-16T06:45:58.877Z,97495.91
2022-11-16T06:48:26.975Z,97489.22
2022-11-16T06:50:55.407Z,97508.34
2022-11-16T06:53:28.825Z,97512.41
2022-11-16T06:56:02.589Z,97491.50
2022-11-16T06:58:31.836Z,97494.94
2022-11-16T07:01:08.028Z,97496.41
2022-11-16T07:03:37.581Z,97495.72
2022-11-16T07:06:08.192Z,97500.38
2022-11-16T07:08:36.826Z,97498.38
2022-11-16T07:11:06.329Z,97513.78
2022-11-16T07:13:35.251Z,97505.41
2022-11-16T07:16:04.738Z,97518.44
2022-11-16T07:18:35.973Z,97512.91
2022-11-16T07:21:07.563Z,97518.44
2022-11-16T07:23:36.019Z,97525.41
2022-11-16T07:26:05.588Z,97526.63
2022-11-16T07:28:46.575Z,97528.59
2022-11-16T07:31:17.766Z,97543.50
2022-11-16T07:33:46.981Z,97550.63
2022-11-16T07:36:33.198Z,97548.22
2022-11-16T07:39:01.250Z,97560.03
2022-11-16T07:41:29.708Z,97556.91
2022-11-16T07:44:20.085Z,97555.38
2022-11-16T07:47:01.747Z,97556.94
2022-11-16T07:49:32.795Z,97551.00
2022-11-16T07:52:06.178Z,97545.50
2022-11-16T07:54:45.035Z,97558.84
2022-11-16T07:57:13.791Z,97567.44
2022-11-16T07:59:42.807Z,97571.13
2022-11-16T08:02:10.753Z,97572.06
2022-11-16T08:04:41.891Z,97566.81
2022-11-16T08:07:10.304Z,97565.22
2022-11-16T08:09:45.789Z,97580.47
2022-11-16T08:12:15.694Z,97580.47
2022-11-16T08:14:43.999Z,97582.03
2022-11-16T08:17:13.443Z,97580.25
2022-11-16T08:19:43.304Z,97583.66
2022-11-16T08:22:14.304Z,97575.13
2022-11-16T08:24:43.023Z,97579.00
2022-11-16T08:27:10.786Z,97569.59
2022-11-16T08:29:39.100Z,97567.66
2022-11-16T08:32:09.752Z,97575.47
2022-11-16T08:34:37.957Z,97577.88
2022-11-16T08:37:08.162Z,97584.38
2022-11-16T08:39:45.640Z,97564.78
2022-11-16T08:42:13.566Z,97571.91
2022-11-16T08:44:45.457Z,97572.25
2022-11-16T08:47:15.680Z,97571.13
2022-11-16T08:49:49.840Z,97583.22
2022-11-16T08:52:20.665Z,97584.13
2022-11-16T08:54:50.604Z,97567.09
2022-11-16T08:57:18.803Z,97564.50
2022-11-16T08:59:50.024Z,97569.69
2022-11-16T09:02:25.193Z,97585.66
2022-11-16T09:04:53.288Z,97584.09
2022-11-16T09:07:22.790Z,97591.59
2022-11-16T09:09:50.613Z,97590.78
2022-11-16T09:12:18.721Z,97582.13
2022-11-16T09:14:46.585Z,97582.06
2022-11-16T09:17:18.821Z,97587.25
2022-11-16T09:19:49.610Z,97591.63
2022-11-16T09:22:17.342Z,97568.97
2022-11-16T09:24:46.409Z,97578.13
2022-11-16T09:27:14.929Z,97559.28
2022-11-16T09:29:42.616Z,97562.00
2022-11-16T09:32:10.495Z,97560.25
2022-11-16T09:34:38.255Z,97558.06
2022-11-16T09:37:06.044Z,97556.88
2022-11-16T09:39:34.408Z,97561.41
2022-11-16T09:42:22.544Z,97557.72
2022-11-16T09:45:00.177Z,97561.41
2022-11-16T09:47:41.174Z,97560.13
2022-11-16T09:50:33.120Z,97563.41
2022-11-16T09:53:11.266Z,97565.16
2022-11-16T09:55:47.883Z,97562.00
2022-11-16T09:58:21.133Z,97560.72
2022-11-16T10:00:55.673Z,97567.63
2022-11-16T10:03:26.331Z,97566.75
2022-11-16T10:06:02.662Z,97564.06
2022-11-16T10:08:43.840Z,97575.38
2022-11-16T10:11:39.813Z,97567.34
2022-11-16T10:14:35.580Z,97574.91
2022-11-16T10:17:10.914Z,97565.72
2022-11-16T10:19:46.624Z,97565.69
2022-11-16T10:22:31.906Z,97569.66
2022-11-16T10:25:01.191Z,97560.75
2022-11-16T10:27:42.805Z,97562.19
2022-11-16T10:30:15.634Z,97560.75
2022-11-16T10:32:51.772Z,97559.16
2022-11-16T10:35:26.642Z,97559.06
2022-11-16T10:37:54.471Z,97553.78
2022-11-16T10:40:25.956Z,97534.94
2022-11-16T10:43:03.339Z,97549.09
2022-11-16T10:45:41.195Z,97548.94
2022-11-16T10:48:20.572Z,97543.06
2022-11-16T10:50:49.920Z,97535.50
2022-11-16T10:53:28.559Z,97528.38
2022-11-16T10:56:14.283Z,97521.22
2022-11-16T10:58:52.289Z,97532.88
2022-11-16T11:01:36.760Z,97529.53
2022-11-16T11:04:23.492Z,97534.25
2022-11-16T11:06:53.717Z,97530.34
2022-11-16T11:09:26.068Z,97522.88
2022-11-16T11:12:20.263Z,97520.28
2022-11-16T11:15:03.461Z,97512.03
2022-11-16T11:17:34.245Z,97508.00
2022-11-16T11:20:05.502Z,97508.38
2022-11-16T11:22:35.871Z,97511.31
2022-11-16T11:25:04.419Z,97514.59
2022-11-16T11:27:35.890Z,97518.44
2022-11-16T11:30:04.309Z,97515.06
2022-11-16T11:32:41.475Z,97504.84
2022-11-16T11:35:24.552Z,97513.81
2022-11-16T11:37:55.393Z,97495.91
2022-11-16T11:40:25.546Z,97504.84
2022-11-16T11:42:56.548Z,97496.06
2022-11-16T11:45:30.158Z,97484.75
2022-11-16T11:48:02.795Z,97488.19
2022-11-16T11:50:43.309Z,97487.66
2022-11-16T11:53:19.822Z,97485.00
2022-11-16T11:55:47.819Z,97496.00
2022-11-16T11:58:17.994Z,97489.53
2022-11-16T12:01:01.252Z,97488.97
2022-11-16T12:04:22.560Z,97482.25
2022-11-16T12:06:59.541Z,97487.28
2022-11-16T12:09:40.787Z,97476.72
2022-11-16T12:12:21.926Z,97475.75
2022-11-16T12:15:03.361Z,97478.28
2022-11-16T12:17:42.108Z,97471.16
2022-11-16T12:20:30.888Z,97472.97
2022-11-16T12:23:18.828Z,97470.00
2022-11-16T12:25:54.122Z,97460.91
2022-11-16T12:28:40.868Z,97458.19
2022-11-16T12:31:38.812Z,97447.56
2022-11-16T12:34:15.603Z,97444.94
2022-11-16T12:36:51.708Z,97448.25
2022-11-16T12:39:25.219Z,97451.47
2022-11-16T12:42:18.033Z,97452.06
2022-11-16T12:45:12.427Z,97452.09
2022-11-16T12:47:54.140Z,97455.41
2022-11-16T12:50:43.233Z,97455.47
2022-11-16T12:53:29.252Z,97438.03
2022-11-16T12:56:04.453Z,97441.06
2022-11-16T12:58:50.384Z,97442.56
2022-11-16T13:01:23.682Z,97443.03
2022-11-16T13:03:55.971Z,97435.06
2022-11-16T13:06:30.574Z,97446.91
2022-11-16T13:09:04.721Z,97437.13
2022-11-16T13:11:36.657Z,97428.91
2022-11-16T13:14:09.144Z,97427.91
2022-11-16T13:16:37.048Z,97436.09
2022-11-16T13:19:07.709Z,97437.47
2022-11-16T13:21:44.547Z,97425.81
2022-11-16T13:24:33.455Z,97430.59
2022-11-16T13:27:17.760Z,97428.72
2022-11-16T13:29:52.265Z,97435.50
2022-11-16T13:32:26.732Z,97433.66
2022-11-16T13:34:55.300Z,97422.38
2022-11-16T13:37:42.269Z,97432.16
2022-11-16T13:40:26.287Z,97428.97
2022-11-16T13:43:17.779Z,97421.19
2022-11-16T13:45:53.889Z,97430.22
2022-11-16T13:48:26.582Z,97418.41
2022-11-16T13:50:59.402Z,97418.28
2022-11-16T13:56:28.735Z,97424.00
2022-11-16T13:58:59.419Z,97412.66
2022-11-16T14:01:57.549Z,97406.78
2022-11-16T14:04:40.819Z,97414.66
2022-11-16T14:07:36.649Z,97402.16
2022-11-16T14:10:07.863Z,97401.59
2022-11-16T14:12:59.593Z,97403.69
2022-11-16T14:15:34.451Z,97397.56
2022-11-16T14:18:21.799Z,97387.63
2022-11-16T14:20:59.764Z,97380.31
2022-11-16T14:24:05.896Z,97385.94
2022-11-16T14:26:46.820Z,97387.44
2022-11-16T14:29:33.048Z,97380.47
2022-11-16T14:32:04.140Z,97379.88
2022-11-16T14:34:34.387Z,97369.72
2022-11-16T14:37:03.226Z,97371.00
2022-11-16T14:39:35.219Z,97368.41
2022-11-16T14:42:06.942Z,97362.13
2022-11-16T14:44:38.512Z,97359.19
2022-11-16T14:47:21.851Z,97358.47
2022-11-16T14:49:50.220Z,97358.72
2022-11-16T14:52:26.943Z,97352.09
2022-11-16T14:54:58.081Z,97364.09
2022-11-16T14:57:25.840Z,97358.81
2022-11-16T15:00:09.579Z,97353.09
2022-11-16T15:02:40.247Z,97351.38
2022-11-16T15:05:08.748Z,97348.78
2022-11-16T15:07:36.881Z,97357.97
2022-11-16T15:10:05.203Z,97352.72
2022-11-16T15:12:45.811Z,97358.28
2022-11-16T15:15:16.872Z,97363.56
2022-11-16T15:17:47.473Z,97344.84
2022-11-16T15:20:21.060Z,97354.91
2022-11-16T15:22:51.786Z,97352.38
2022-11-16T15:25:28.610Z,97347.94
2022-11-16T15:27:57.927Z,97353.53
2022-11-16T15:30:27.705Z,97350.72
2022-11-16T15:32:57.538Z,97353.81
2022-11-16T15:35:29.613Z,97340.84
2022-11-16T15:38:05.372Z,97344.63
2022-11-16T15:40:34.033Z,97344.69
2022-11-16T15:43:04.965Z,97337.59
2022-11-16T15:45:33.902Z,97345.56
2022-11-16T15:48:04.882Z,97340.72
2022-11-16T15:50:32.737Z,97338.78
2022-11-16T15:53:00.453Z,97344.56
2022-11-16T15:55:33.960Z,97342.44
2022-11-16T15:58:04.609Z,97349.97
2022-11-16T16:00:35.817Z,97348.81
2022-11-16T16:03:07.522Z,97339.25
2022-11-16T16:05:39.683Z,97326.25
2022-11-16T16:08:24.205Z,97335.88
2022-11-16T16:10:59.824Z,97335.47
2022-11-16T16:13:30.505Z,97334.19
2022-11-16T16:16:23.523Z,97330.09
2022-11-16T16:18:54.308Z,97345.53
2022-11-16T16:21:22.704Z,97350.13
2022-11-16T16:23:52.327Z,97340.66
2022-11-16T16:26:20.529Z,97342.09
2022-11-16T16:28:48.694Z,97345.63
2022-11-16T16:31:20.018Z,97341.19
2022-11-16T16:33:47.954Z,97341.97
2022-11-16T16:36:17.073Z,97341.72
2022-11-16T16:38:44.892Z,97337.34
2022-11-16T16:41:24.029Z,97329.13
2022-11-16T16:43:52.354Z,97316.56
2022-11-16T16:46:20.344Z,97308.38
2022-11-16T16:48:48.036Z,97316.75
2022-11-16T16:51:17.138Z,97314.41
2022-11-16T16:53:44.842Z,97310.31
2022-11-16T16:56:16.265Z,97318.31
2022-11-16T16:58:43.998Z,97312.84
2022-11-16T17:01:11.985Z,97311.09
2022-11-16T17:03:40.007Z,97312.91
2022-11-16T17:06:07.758Z,97303.41
2022-11-16T17:08:38.093Z,97317.69
2022-11-16T17:11:06.665Z,97310.94
2022-11-16T17:13:34.636Z,97308.13
2022-11-16T17:16:05.647Z,97308.16
2022-11-16T17:18:33.497Z,97296.88
2022-11-16T17:21:04.897Z,97299.56
2022-11-16T17:23:33.168Z,97300.94
2022-11-16T17:26:05.933Z,97298.16
2022-11-16T17:28:33.758Z,97299.41
2022-11-16T17:31:03.143Z,97295.09
2022-11-16T17:33:34.734Z,97291.56
2022-11-16T17:36:03.858Z,97297.84
2022-11-16T17:38:31.765Z,97290.75
2022-11-16T17:41:06.525Z,97291.13
2022-11-16T17:43:35.376Z,97289.09
2022-11-16T17:46:07.710Z,97283.66
2022-11-16T17:48:36.586Z,97285.47
2022-11-16T17:51:05.068Z,97276.94
2022-11-16T17:53:34.369Z,97274.94
2022-11-16T17:56:02.557Z,97283.59
2022-11-16T17:58:32.530Z,97271.09
2022-11-16T18:01:00.616Z,97268.66
2022-11-16T18:03:28.421Z,97268.75
2022-11-16T18:06:02.741Z,97267.91
2022-11-16T18:08:30.604Z,97264.69
2022-11-16T18:10:58.303Z,97257.63
2022-11-16T18:13:26.237Z,97264.63
2022-11-16T18:15:55.289Z,97265.50
2022-11-16T18:18:23.062Z,97260.69
2022-11-16T18:20:50.815Z,97257.28
2022-11-16T18:23:18.601Z,97254.72
2022-11-16T18:25:46.387Z,97243.16
2022-11-16T18:28:14.093Z,97248.19
2022-11-16T18:30:42.175Z,97240.41
2022-11-16T18:33:11.396Z,97238.34
2022-11-16T18:35:39.139Z,97236.50
2022-11-16T18:38:12.782Z,97232.63
2022-11-16T18:40:41.117Z,97230.25
2022-11-16T18:43:13.271Z,97226.41
2022-11-16T18:45:41.172Z,97219.38
2022-11-16T18:48:08.871Z,97225.19
2022-11-16T18:50:38.104Z,97205.78
2022-11-16T18:53:05.812Z,97203.88
2022-11-16T18:55:33.569Z,97201.50
2022-11-16T18:58:01.339Z,97192.34
2022-11-16T19:00:29.325Z,97195.50
2022-11-16T19:02:59.276Z,97195.50
2022-11-16T19:05:27.044Z,97192.34
2022-11-16T19:07:56.155Z,97192.47
2022-11-16T19:10:23.974Z,97188.91
2022-11-16T19:12:51.681Z,97197.34
2022-11-16T19:15:19.413Z,97206.81
2022-11-16T19:18:06.709Z,97198.91
2022-11-16T19:20:35.204Z,97205.59
2022-11-16T19:23:04.323Z,97198.13
2022-11-16T19:25:32.229Z,97200.47
2022-11-16T19:28:00.059Z,97187.06
2022-11-16T19:30:27.812Z,97190.88
2022-11-16T19:32:57.528Z,97188.28
2022-11-16T19:35:25.387Z,97191.81
2022-11-16T19:37:53.190Z,97192.94
2022-11-16T19:40:24.991Z,97201.44
2022-11-16T19:42:54.085Z,97200.09
2022-11-16T19:45:21.800Z,97203.72
2022-11-16T19:47:49.580Z,97201.72
2022-11-16T19:50:17.845Z,97213.50
2022-11-16T19:52:48.295Z,97212.16
2022-11-16T19:55:16.453Z,97215.41
2022-11-16T19:57:48.465Z,97213.78
2022-11-16T20:00:17.839Z,97209.66
2022-11-16T20:02:45.668Z,97219.03
2022-11-16T20:05:13.389Z,97221.31
2022-11-16T20:07:41.229Z,97224.63
2022-11-16T20:10:09.657Z,97225.69
2022-11-16T20:12:37.404Z,97212.47
2022-11-16T20:15:07.535Z,97208.53
2022-11-16T20:17:35.429Z,97190.34
2022-11-16T20:20:03.206Z,97182.84
2022-11-16T20:22:30.973Z,97178.13
2022-11-16T20:25:01.434Z,97167.44
2022-11-16T20:27:29.284Z,97174.16
2022-11-16T20:29:57.203Z,97165.97
2022-11-16T20:32:26.395Z,97168.38
2022-11-16T20:34:54.113Z,97170.31
2022-11-16T20:37:21.905Z,97162.88
2022-11-16T20:39:52.489Z,97160.13
2022-11-16T20:42:20.248Z,97167.59
2022-11-16T20:44:49.048Z,97171.91
2022-11-16T20:47:16.782Z,97171.91
2022-11-16T20:49:45.846Z,97172.69
2022-11-16T20:52:13.555Z,97170.72
2022-11-16T20:54:41.386Z,97154.22
2022-11-16T20:57:09.128Z,97160.84
2022-11-16T20:59:36.967Z,97152.94
2022-11-16T21:02:04.729Z,97158.13
2022-11-16T21:04:32.520Z,97152.56
2022-11-16T21:07:01.627Z,97151.44
2022-11-16T21:09:49.305Z,97151.34
2022-11-16T21:12:38.764Z,97155.00
2022-11-16T21:15:10.021Z,97134.53
2022-11-16T21:17:38.031Z,97134.16
2022-11-16T21:20:26.367Z,97131.00
2022-11-16T21:22:55.511Z,97126.75
2022-11-16T21:25:23.195Z,97131.00
2022-11-16T21:27:50.940Z,97133.78
2022-11-16T21:30:18.712Z,97137.75
2022-11-16T21:32:46.415Z,97139.28
2022-11-16T21:35:14.295Z,97133.41
2022-11-16T21:37:41.979Z,97125.13
2022-11-16T21:40:12.895Z,97125.53
2022-11-16T21:42:40.682Z,97127.53
2022-11-16T21:45:09.638Z,97115.72
2022-11-16T21:47:37.348Z,97122.72
2022-11-16T21:50:30.605Z,97123.19
2022-11-16T21:52:53.661Z,97120.03
2022-11-16T21:55:22.714Z,97129.91
2022-11-16T21:57:50.432Z,97126.31
2022-11-16T22:00:19.631Z,97125.16
2022-11-16T22:02:47.305Z,97126.75
2022-11-16T22:05:32.619Z,97119.66
2022-11-16T22:08:05.753Z,97117.34
2022-11-16T22:10:35.173Z,97120.06
2022-11-16T22:13:03.009Z,97123.16
2022-11-16T22:15:31.084Z,97122.75
2022-11-16T22:17:58.828Z,97121.56
2022-11-16T22:20:26.506Z,97131.47
2022-11-16T22:22:54.228Z,97120.44
2022-11-16T22:25:22.064Z,97118.47
2022-11-16T22:28:20.251Z,97112.59
2022-11-16T22:30:38.860Z,97104.78
2022-11-16T22:33:06.550Z,97103.56
2022-11-16T22:35:34.289Z,97100.44
2022-11-16T22:38:04.158Z,97094.56
2022-11-16T22:40:31.967Z,97093.75
2022-11-16T22:43:01.196Z,97079.56
2022-11-16T22:45:28.939Z,97085.13
2022-11-16T22:47:56.851Z,97089.44
2022-11-16T22:50:24.560Z,97093.72
2022-11-16T22:52:55.305Z,97086.28
2022-11-16T22:55:23.072Z,97095.34
2022-11-16T22:57:50.754Z,97085.91
2022-11-16T23:00:20.425Z,97082.38
2022-11-16T23:02:48.364Z,97077.66
2022-11-16T23:05:16.104Z,97076.47
2022-11-16T23:07:43.943Z,97077.63
2022-11-16T23:10:11.723Z,97067.00
2022-11-16T23:12:56.399Z,97072.47
2022-11-16T23:15:42.975Z,97057.53
2022-11-16T23:18:10.777Z,97060.28
2022-11-16T23:20:55.974Z,97061.06
2022-11-16T23:23:41.691Z,97057.97
2022-11-16T23:26:32.034Z,97067.47
2022-11-16T23:29:00.279Z,97056.06
2022-11-16T23:31:29.429Z,97059.59
2022-11-16T23:33:57.175Z,97052.94
2022-11-16T23:36:24.925Z,97045.09
2022-11-16T23:38:52.621Z,97042.75
2022-11-16T23:41:37.863Z,97034.09
2022-11-16T23:44:05.842Z,97034.09
2022-11-16T23:46:35.389Z,97036.06
2022-11-16T23:49:03.051Z,97024.69
2022-11-16T23:51:30.752Z,97024.69
2022-11-16T23:53:58.445Z,97019.19
2022-11-16T23:56:26.337Z,97014.47
2022-11-16T23:58:57.295Z,97008.19
